NCAR-RAP Real-Time Weather Data

Output produced by METARs form (08 May 2021  16:46 UTC)
found at http://weather.rap.ucar.edu/surface/
 
KILM 081553Z 25013G23KT 10SM CLR 23/03 A3004 RMK AO2 SLP170 T02330033 $
KILM 081453Z 26014KT 10SM CLR 22/03 A3005 RMK AO2 SLP176 T02170033 58004 $
KILM 081353Z 26010KT 10SM CLR 19/06 A3006 RMK AO2 SLP179 T01940056 $
KILM 081253Z 23005KT 10SM CLR 16/07 A3006 RMK AO2 SLP179 T01610067 $
KILM 081153Z 23007KT 10SM CLR 13/08 A3006 RMK AO2 SLP179 70044 T01280083 10128 20078 53015 $
KILM 081053Z 00000KT 10SM CLR 09/08 A3004 RMK AO2 SLP173 T00940083 $
KILM 080959Z 00000KT 3SM R35/4500VP6000FT BR CLR 08/07 A3003 RMK AO2 T00780067 $
KILM 080957Z 00000KT 1 3/4SM R35/4500VP6000FT BR CLR 08/07 A3003 RMK AO2 T00780067 $
KILM 080953Z AUTO 00000KT 3/4SM R35/3000VP6000FT BR CLR 08/07 A3003 RMK AO2 SLP168 T00780067 $
KILM 080940Z AUTO 00000KT 3/4SM R35/3000VP6000FT BR CLR 08/07 A3002 RMK AO2 T00780067 $
KILM 080934Z AUTO 00000KT 1 3/4SM BR CLR 08/07 A3002 RMK AO2 T00830067 $
KILM 080859Z AUTO 00000KT 3SM R35/6000VP6000FT BR CLR 08/08 A3002 RMK AO2 T00830078 $
KILM 080853Z AUTO 00000KT 1 3/4SM R35/6000VP6000FT BR CLR 08/07 A3002 RMK AO2 SLP164 T00830072 53005 $
KILM 080844Z AUTO 00000KT 4SM BR CLR 09/08 A3002 RMK AO2 T00890078 $
KILM 080842Z AUTO 00000KT 1 1/4SM BR FEW002 09/08 A3001 RMK AO2 T00890078 $
KILM 080835Z AUTO 00000KT 3/4SM R35/P6000FT BR VV002 08/07 A3002 RMK AO2 T00830072 $
KILM 080833Z AUTO 00000KT 1 1/4SM BR FEW002 08/07 A3002 RMK AO2 T00830072 $
KILM 080753Z AUTO 00000KT 10SM CLR 09/08 A3001 RMK AO2 SLP162 T00890078 $
KILM 080653Z AUTO 00000KT 10SM CLR 09/08 A3001 RMK AO2 SLP161 T00940078 $
KILM 080553Z AUTO 00000KT 10SM CLR 10/08 A3000 RMK AO2 SLP159 T01000083 10167 20100 50004 $
KILM 080453Z AUTO 00000KT 8SM CLR 11/09 A3001 RMK AO2 SLP160 T01110094 402220106 $
KILM 080353Z AUTO 00000KT 10SM CLR 12/09 A3001 RMK AO2 SLP160 T01170089 $
KILM 080253Z AUTO 00000KT 10SM CLR 13/09 A2999 RMK AO2 SLP155 LAST T01330094 53028 $
KILM 080153Z 00000KT 10SM CLR 13/11 A2996 RMK AO2 SLP146 T01280111 $
KILM 080053Z 22003KT 10SM CLR 15/11 A2993 RMK AO2 SLP135 T01500111 $
KILM 072353Z 29007KT 10SM CLR 17/09 A2991 RMK AO2 SLP127 60005 T01670094 10222 20133 53010 $
KILM 072253Z 30010KT 10SM CLR 18/10 A2989 RMK AO2 SLP122 T01780100 $
KILM 072153Z 30008KT 10SM CLR 17/11 A2988 RMK AO2 RAE09 SLP116 P0001 T01720111 $
KILM 072053Z 30009KT 3SM RA BKN048 OVC070 13/11 A2988 RMK AO2 PK WND 32044/2030 LTG DSNT NE RAB25 SLP117 P0004 60004 T01330106 53009 $
KILM 072044Z 31015G30KT 2 1/2SM RA BKN048 OVC065 13/10 A2989 RMK AO2 PK WND 32044/2030 LTG DSNT NE RAB25 P0000 T01330100
KILM 072037Z 30024G44KT 3SM RA SQ FEW040 BKN048 OVC065 14/11 A2989 RMK AO2 PK WND 32044/2030 LTG DSNT N AND NE RAB25 PRESRR P0000 T01440111
KILM 071953Z 30013G19KT 10SM SCT048 SCT060 22/09 A2983 RMK AO2 LTG DSNT W AND NW SLP102 T02220089
KILM 071853Z 28010G20KT 10SM SCT044 21/09 A2985 RMK AO2 SLP107 T02110089
KILM 071753Z VRB05KT 10SM CLR 20/11 A2985 RMK AO2 SLP108 60039 T02000106 10206 20128 56014
KILM 071653Z 03008KT 10SM SCT060 BKN080 18/11 A2986 RMK AO2 SLP112 T01830106
KILM 071553Z 03020G26KT 10SM CLR 16/12 A2985 RMK AO2 PK WND 01032/1508 LTG DSNT E RAE31 TSE05 SLP108 P0014 T01610117
KILM 071524Z 02020G26KT 7SM -RA SCT035 BKN070 BKN090 14/12 A2985 RMK AO2 PK WND 01032/1508 LTG DSNT E AND SE TSE05 P0014 T01390117
KILM 071505Z 01016G25KT 3SM VCTS RA BR FEW012 BKN050 OVC070 13/12 A2987 RMK AO2 PK WND 31026/1454 LTG DSNT ALQDS TSE05 P0009 T01330117
KILM 071501Z 36018G28KT 2SM TSRA BR FEW014 BKN027 OVC070 13/12 A2988 RMK AO2 PK WND 31026/1454 LTG DSNT ALQDS P0008 T01330117
KILM 071453Z 32022G32KT 1 1/2SM R35/6000VP6000FT +TSRA BR SCT017 BKN024 OVC044 13/12 A2989 RMK AO2 PK WND 35037/1438 WSHFT 1428 LTG DSNT ALQDS RAB17 TSB23 SLP121 P0025 60025 T01330117 53018
KILM 071442Z 35020G37KT 2 1/2SM +TSRA FEW015 BKN023 OVC050 13/11 A2984 RMK AO2 PK WND 35037/1438 WSHFT 1428 LTG DSNT ALQDS RAB17 TSB23 P0017 T01330106
KILM 071430Z 28019G26KT 1 1/2SM R35/5000VP6000FT +TSRA FEW016 BKN023 OVC050 17/14 A2981 RMK AO2 PK WND 28026/1430 LTG DSNT ALQDS RAB17 TSB23 P0002 T01720139
KILM 071423Z VRB06G24KT 9SM -TSRA BKN023 BKN032 OVC050 18/13 A2981 RMK AO2 LTG DSNT W-NE RAB17 TSB23 PRESRR P0000 T01780133
KILM 071353Z 12011KT 10SM VCTS FEW023 SCT030 BKN035 20/13 A2980 RMK AO2 LTG DSNT W-N SLP091 T02000133
KILM 071350Z 12010KT 10SM VCTS FEW023 SCT030 BKN035 20/13 A2981 RMK AO2 LTG DSNT W-N
KILM 071253Z 11011KT 10SM BKN030 19/13 A2984 RMK AO2 SLP103 T01890128
KILM 071153Z 05005KT 10SM FEW085 17/13 A2985 RMK AO2 SLP106 T01720133 10172 20117 57006
KILM 071053Z 00000KT 10SM FEW027 BKN090 14/12 A2986 RMK AO2 SLP109 T01390117
KILM 071017Z 06003KT 10SM BKN028 OVC100 14/12 A2985 RMK AO2 T01390122
KILM 070953Z 04006KT 10SM OVC100 13/12 A2985 RMK AO2 SLP108 T01330117
KILM 070853Z 04005KT 10SM CLR 12/11 A2986 RMK AO2 SLP112 T01170106 56020
KILM 070753Z 00000KT 10SM CLR 13/12 A2987 RMK AO2 SLP114 T01330117
KILM 070653Z 04004KT 10SM CLR 13/12 A2989 RMK AO2 SLP121 T01330117
KILM 070553Z 36003KT 10SM CLR 14/12 A2992 RMK AO2 SLP131 T01440122 10189 20139 58014
KILM 070453Z 05005KT 10SM FEW043 BKN050 15/12 A2994 RMK AO2 SLP136 T01500122 402220139
KILM 070353Z 02005KT 10SM FEW030 FEW043 15/13 A2995 RMK AO2 SLP141 T01500128
KILM 070253Z 00000KT 10SM CLR 16/13 A2996 RMK AO2 SLP146 LAST T01560128 53009
KILM 070153Z 05004KT 10SM CLR 16/12 A2995 RMK AO2 SLP143 T01560122
KILM 070053Z 07004KT 10SM CLR 17/13 A2994 RMK AO2 SLP139 T01670128
KILM 062353Z 10004KT 10SM FEW065 19/12 A2994 RMK AO2 SLP137 T01890122 10222 20189 55000
KILM 062253Z 12008KT 10SM BKN080 20/12 A2993 RMK AO2 SLP136 T02000117
KILM 062153Z 13009KT 10SM FEW060 21/11 A2994 RMK AO2 SLP137 T02060111
KILM 062053Z 10008KT 10SM BKN045 BKN050 21/11 A2994 RMK AO2 SLP137 T02060106 56019
KILM 061953Z 11009KT 10SM SCT037 21/12 A2995 RMK AO2 SLP141 T02110117
KILM 061853Z 08008KT 10SM BKN039 OVC060 21/12 A2998 RMK AO2 SLP152 T02060117
KILM 061753Z 10008KT 10SM OVC037 21/12 A2999 RMK AO2 SLP156 T02110117 10222 20189 58012
KILM 061653Z 10010KT 10SM BKN034 BKN043 21/12 A3001 RMK AO2 SLP160 T02110122